sensor_id;sensor_type;location;lat;lon;timestamp;P1;durP1;ratioP1;P2;durP2;ratioP2
10957;SDS011;5531;42.570;23.676;2023-02-01T00:00:11;9.52;;;6.85;;
10957;SDS011;5531;42.570;23.676;2023-02-01T00:02:40;5.70;;;4.88;;
10957;SDS011;5531;42.570;23.676;2023-02-01T00:05:09;7.43;;;6.68;;
10957;SDS011;5531;42.570;23.676;2023-02-01T00:07:39;6.55;;;5.80;;
10957;SDS011;5531;42.570;23.676;2023-02-01T00:10:08;8.25;;;6.15;;
10957;SDS011;5531;42.570;23.676;2023-02-01T00:12:38;6.97;;;5.25;;
10957;SDS011;5531;42.570;23.676;2023-02-01T00:15:10;6.93;;;5.30;;
10957;SDS011;5531;42.570;23.676;2023-02-01T00:17:39;7.07;;;5.80;;
10957;SDS011;5531;42.570;23.676;2023-02-01T00:20:09;7.05;;;6.20;;
10957;SDS011;5531;42.570;23.676;2023-02-01T00:22:39;6.18;;;5.57;;
10957;SDS011;5531;42.570;23.676;2023-02-01T00:25:08;6.80;;;6.10;;
10957;SDS011;5531;42.570;23.676;2023-02-01T00:27:37;6.50;;;5.85;;
10957;SDS011;5531;42.570;23.676;2023-02-01T00:30:07;6.38;;;5.78;;
10957;SDS011;5531;42.570;23.676;2023-02-01T00:32:40;7.20;;;6.28;;
10957;SDS011;5531;42.570;23.676;2023-02-01T00:35:09;6.35;;;5.75;;
10957;SDS011;5531;42.570;23.676;2023-02-01T00:37:38;7.50;;;6.80;;
10957;SDS011;5531;42.570;23.676;2023-02-01T00:40:07;7.90;;;6.68;;
10957;SDS011;5531;42.570;23.676;2023-02-01T00:42:37;6.82;;;6.13;;
10957;SDS011;5531;42.570;23.676;2023-02-01T00:45:07;6.22;;;5.63;;
10957;SDS011;5531;42.570;23.676;2023-02-01T00:47:39;7.88;;;7.03;;
10957;SDS011;5531;42.570;23.676;2023-02-01T00:50:09;8.02;;;7.03;;
10957;SDS011;5531;42.570;23.676;2023-02-01T00:52:38;7.20;;;6.47;;
10957;SDS011;5531;42.570;23.676;2023-02-01T00:55:07;7.57;;;6.65;;
10957;SDS011;5531;42.570;23.676;2023-02-01T00:57:37;7.70;;;6.50;;
10957;SDS011;5531;42.570;23.676;2023-02-01T01:00:06;7.22;;;6.50;;
10957;SDS011;5531;42.570;23.676;2023-02-01T01:02:39;7.55;;;6.82;;
10957;SDS011;5531;42.570;23.676;2023-02-01T01:05:09;7.20;;;6.50;;
10957;SDS011;5531;42.570;23.676;2023-02-01T01:07:38;8.70;;;6.90;;
10957;SDS011;5531;42.570;23.676;2023-02-01T01:10:07;7.50;;;6.80;;
10957;SDS011;5531;42.570;23.676;2023-02-01T01:12:37;6.97;;;6.15;;
10957;SDS011;5531;42.570;23.676;2023-02-01T01:15:06;7.95;;;7.00;;
10957;SDS011;5531;42.570;23.676;2023-02-01T01:17:39;7.00;;;6.18;;
10957;SDS011;5531;42.570;23.676;2023-02-01T01:20:09;7.75;;;6.95;;
10957;SDS011;5531;42.570;23.676;2023-02-01T01:22:39;7.18;;;6.40;;
10957;SDS011;5531;42.570;23.676;2023-02-01T01:25:08;8.07;;;6.40;;
10957;SDS011;5531;42.570;23.676;2023-02-01T01:27:37;6.72;;;6.07;;
10957;SDS011;5531;42.570;23.676;2023-02-01T01:30:06;6.93;;;5.93;;
10957;SDS011;5531;42.570;23.676;2023-02-01T01:32:39;7.00;;;5.40;;
10957;SDS011;5531;42.570;23.676;2023-02-01T01:35:08;6.63;;;5.72;;
10957;SDS011;5531;42.570;23.676;2023-02-01T01:37:37;5.80;;;5.28;;
10957;SDS011;5531;42.570;23.676;2023-02-01T01:40:07;6.60;;;6.00;;
10957;SDS011;5531;42.570;23.676;2023-02-01T01:42:38;6.97;;;5.95;;
10957;SDS011;5531;42.570;23.676;2023-02-01T01:45:22;6.80;;;6.10;;
10957;SDS011;5531;42.570;23.676;2023-02-01T01:47:56;6.10;;;5.50;;
10957;SDS011;5531;42.570;23.676;2023-02-01T01:50:29;6.13;;;5.53;;
10957;SDS011;5531;42.570;23.676;2023-02-01T01:53:02;6.53;;;5.40;;
10957;SDS011;5531;42.570;23.676;2023-02-01T01:55:35;6.32;;;5.60;;
10957;SDS011;5531;42.570;23.676;2023-02-01T01:58:08;6.43;;;5.05;;
10957;SDS011;5531;42.570;23.676;2023-02-01T02:00:40;5.85;;;4.95;;
10957;SDS011;5531;42.570;23.676;2023-02-01T02:03:15;5.78;;;4.65;;
10957;SDS011;5531;42.570;23.676;2023-02-01T02:05:49;5.35;;;4.80;;
10957;SDS011;5531;42.570;23.676;2023-02-01T02:08:20;5.30;;;4.40;;
10957;SDS011;5531;42.570;23.676;2023-02-01T02:10:53;6.63;;;4.95;;
10957;SDS011;5531;42.570;23.676;2023-02-01T02:13:29;6.30;;;4.57;;
10957;SDS011;5531;42.570;23.676;2023-02-01T02:16:19;4.75;;;4.28;;
10957;SDS011;5531;42.570;23.676;2023-02-01T02:19:08;7.47;;;4.30;;
10957;SDS011;5531;42.570;23.676;2023-02-01T02:21:56;4.90;;;4.40;;
10957;SDS011;5531;42.570;23.676;2023-02-01T02:24:56;5.30;;;4.30;;
10957;SDS011;5531;42.570;23.676;2023-02-01T02:27:50;4.63;;;4.22;;
10957;SDS011;5531;42.570;23.676;2023-02-01T02:30:33;5.25;;;4.55;;
10957;SDS011;5531;42.570;23.676;2023-02-01T02:36:23;4.95;;;4.43;;
10957;SDS011;5531;42.570;23.676;2023-02-01T02:39:04;5.07;;;4.30;;
10957;SDS011;5531;42.570;23.676;2023-02-01T02:41:40;4.78;;;4.18;;
10957;SDS011;5531;42.570;23.676;2023-02-01T02:44:37;4.32;;;3.92;;
10957;SDS011;5531;42.570;23.676;2023-02-01T02:47:27;5.65;;;4.50;;
10957;SDS011;5531;42.570;23.676;2023-02-01T02:50:08;4.22;;;3.83;;
10957;SDS011;5531;42.570;23.676;2023-02-01T02:52:58;4.80;;;3.95;;
10957;SDS011;5531;42.570;23.676;2023-02-01T02:55:44;4.40;;;3.72;;
10957;SDS011;5531;42.570;23.676;2023-02-01T02:58:14;5.97;;;4.97;;
10957;SDS011;5531;42.570;23.676;2023-02-01T03:00:57;4.78;;;3.95;;
10957;SDS011;5531;42.570;23.676;2023-02-01T03:03:38;4.68;;;4.25;;
10957;SDS011;5531;42.570;23.676;2023-02-01T03:06:23;4.88;;;4.32;;
10957;SDS011;5531;42.570;23.676;2023-02-01T03:08:53;4.85;;;3.80;;
10957;SDS011;5531;42.570;23.676;2023-02-01T03:11:26;4.13;;;3.78;;
10957;SDS011;5531;42.570;23.676;2023-02-01T03:14:16;5.25;;;4.00;;
10957;SDS011;5531;42.570;23.676;2023-02-01T03:16:48;6.45;;;4.00;;
10957;SDS011;5531;42.570;23.676;2023-02-01T03:19:22;4.93;;;4.20;;
10957;SDS011;5531;42.570;23.676;2023-02-01T03:21:59;4.40;;;4.00;;
10957;SDS011;5531;42.570;23.676;2023-02-01T03:24:31;4.35;;;3.95;;
10957;SDS011;5531;42.570;23.676;2023-02-01T03:27:04;4.82;;;3.78;;
10957;SDS011;5531;42.570;23.676;2023-02-01T03:29:40;6.35;;;4.57;;
10957;SDS011;5531;42.570;23.676;2023-02-01T03:32:13;5.07;;;4.40;;
10957;SDS011;5531;42.570;23.676;2023-02-01T03:34:42;6.55;;;4.38;;
10957;SDS011;5531;42.570;23.676;2023-02-01T03:37:15;6.75;;;4.70;;
10957;SDS011;5531;42.570;23.676;2023-02-01T03:39:51;5.85;;;4.18;;
10957;SDS011;5531;42.570;23.676;2023-02-01T03:42:26;5.97;;;4.63;;
10957;SDS011;5531;42.570;23.676;2023-02-01T03:45:00;6.85;;;4.55;;
10957;SDS011;5531;42.570;23.676;2023-02-01T03:47:36;5.75;;;4.68;;
10957;SDS011;5531;42.570;23.676;2023-02-01T03:50:10;6.47;;;4.47;;
10957;SDS011;5531;42.570;23.676;2023-02-01T03:52:45;4.88;;;4.28;;
10957;SDS011;5531;42.570;23.676;2023-02-01T03:55:19;7.85;;;4.60;;
10957;SDS011;5531;42.570;23.676;2023-02-01T03:57:51;6.53;;;4.57;;
10957;SDS011;5531;42.570;23.676;2023-02-01T04:00:25;5.32;;;3.97;;
10957;SDS011;5531;42.570;23.676;2023-02-01T04:02:55;4.72;;;3.92;;
10957;SDS011;5531;42.570;23.676;2023-02-01T04:05:24;4.93;;;4.30;;
10957;SDS011;5531;42.570;23.676;2023-02-01T04:07:55;5.88;;;3.92;;
10957;SDS011;5531;42.570;23.676;2023-02-01T04:10:24;5.22;;;3.75;;
10957;SDS011;5531;42.570;23.676;2023-02-01T04:12:53;4.57;;;3.75;;
10957;SDS011;5531;42.570;23.676;2023-02-01T04:15:23;3.83;;;3.38;;
10957;SDS011;5531;42.570;23.676;2023-02-01T04:17:52;4.70;;;3.60;;
10957;SDS011;5531;42.570;23.676;2023-02-01T04:20:21;4.65;;;3.40;;
10957;SDS011;5531;42.570;23.676;2023-02-01T04:22:50;4.13;;;3.55;;
10957;SDS011;5531;42.570;23.676;2023-02-01T04:25:22;5.28;;;3.70;;
10957;SDS011;5531;42.570;23.676;2023-02-01T04:27:51;4.63;;;3.30;;
10957;SDS011;5531;42.570;23.676;2023-02-01T04:30:20;4.13;;;3.17;;
10957;SDS011;5531;42.570;23.676;2023-02-01T04:32:49;4.03;;;3.40;;
10957;SDS011;5531;42.570;23.676;2023-02-01T04:35:18;5.35;;;3.40;;
10957;SDS011;5531;42.570;23.676;2023-02-01T04:37:47;3.58;;;3.28;;
10957;SDS011;5531;42.570;23.676;2023-02-01T04:40:16;5.60;;;3.40;;
10957;SDS011;5531;42.570;23.676;2023-02-01T04:42:48;3.95;;;3.55;;
10957;SDS011;5531;42.570;23.676;2023-02-01T04:45:17;4.30;;;3.40;;
10957;SDS011;5531;42.570;23.676;2023-02-01T04:47:46;3.22;;;2.92;;
10957;SDS011;5531;42.570;23.676;2023-02-01T04:50:16;4.38;;;3.25;;
10957;SDS011;5531;42.570;23.676;2023-02-01T04:52:45;3.47;;;3.17;;
10957;SDS011;5531;42.570;23.676;2023-02-01T04:55:14;4.10;;;3.00;;
10957;SDS011;5531;42.570;23.676;2023-02-01T04:57:44;4.30;;;3.05;;
10957;SDS011;5531;42.570;23.676;2023-02-01T05:00:16;3.13;;;2.83;;
10957;SDS011;5531;42.570;23.676;2023-02-01T05:02:46;3.28;;;2.97;;
10957;SDS011;5531;42.570;23.676;2023-02-01T05:05:15;4.88;;;3.10;;
10957;SDS011;5531;42.570;23.676;2023-02-01T05:07:45;15.70;;;8.23;;
10957;SDS011;5531;42.570;23.676;2023-02-01T05:10:15;5.13;;;3.33;;
10957;SDS011;5531;42.570;23.676;2023-02-01T05:12:44;3.67;;;3.33;;
10957;SDS011;5531;42.570;23.676;2023-02-01T05:15:28;3.72;;;3.33;;
10957;SDS011;5531;42.570;23.676;2023-02-01T05:17:57;4.30;;;3.22;;
10957;SDS011;5531;42.570;23.676;2023-02-01T05:20:26;4.50;;;3.50;;
10957;SDS011;5531;42.570;23.676;2023-02-01T05:22:55;5.82;;;3.95;;
10957;SDS011;5531;42.570;23.676;2023-02-01T05:25:24;4.10;;;3.25;;
10957;SDS011;5531;42.570;23.676;2023-02-01T05:27:53;4.93;;;3.60;;
10957;SDS011;5531;42.570;23.676;2023-02-01T05:30:22;5.00;;;3.85;;
10957;SDS011;5531;42.570;23.676;2023-02-01T05:32:54;5.97;;;3.60;;
10957;SDS011;5531;42.570;23.676;2023-02-01T05:35:23;4.82;;;4.15;;
10957;SDS011;5531;42.570;23.676;2023-02-01T05:37:52;5.85;;;3.78;;
10957;SDS011;5531;42.570;23.676;2023-02-01T05:40:21;6.32;;;3.95;;
10957;SDS011;5531;42.570;23.676;2023-02-01T05:42:50;4.25;;;3.95;;
10957;SDS011;5531;42.570;23.676;2023-02-01T05:45:19;5.45;;;4.10;;
10957;SDS011;5531;42.570;23.676;2023-02-01T05:47:48;6.20;;;4.05;;
10957;SDS011;5531;42.570;23.676;2023-02-01T05:50:20;7.22;;;5.85;;
10957;SDS011;5531;42.570;23.676;2023-02-01T05:52:49;7.03;;;4.75;;
10957;SDS011;5531;42.570;23.676;2023-02-01T05:55:18;7.25;;;4.30;;
10957;SDS011;5531;42.570;23.676;2023-02-01T05:57:47;6.05;;;4.05;;
10957;SDS011;5531;42.570;23.676;2023-02-01T06:00:17;5.85;;;4.70;;
10957;SDS011;5531;42.570;23.676;2023-02-01T06:02:47;7.07;;;4.80;;
10957;SDS011;5531;42.570;23.676;2023-02-01T06:05:16;5.82;;;4.28;;
10957;SDS011;5531;42.570;23.676;2023-02-01T06:07:47;6.25;;;4.47;;
10957;SDS011;5531;42.570;23.676;2023-02-01T06:10:17;6.30;;;4.30;;
10957;SDS011;5531;42.570;23.676;2023-02-01T06:12:46;6.88;;;4.32;;
10957;SDS011;5531;42.570;23.676;2023-02-01T06:15:15;5.18;;;4.30;;
10957;SDS011;5531;42.570;23.676;2023-02-01T06:17:46;6.18;;;4.30;;
10957;SDS011;5531;42.570;23.676;2023-02-01T06:20:15;5.25;;;4.50;;
10957;SDS011;5531;42.570;23.676;2023-02-01T06:22:48;6.63;;;4.50;;
10957;SDS011;5531;42.570;23.676;2023-02-01T06:25:17;5.90;;;4.47;;
10957;SDS011;5531;42.570;23.676;2023-02-01T06:27:47;6.60;;;4.53;;
10957;SDS011;5531;42.570;23.676;2023-02-01T06:30:17;5.75;;;5.15;;
10957;SDS011;5531;42.570;23.676;2023-02-01T06:32:49;6.63;;;5.35;;
10957;SDS011;5531;42.570;23.676;2023-02-01T06:35:21;7.07;;;5.38;;
10957;SDS011;5531;42.570;23.676;2023-02-01T06:37:52;9.02;;;5.88;;
10957;SDS011;5531;42.570;23.676;2023-02-01T06:40:23;6.97;;;5.50;;
10957;SDS011;5531;42.570;23.676;2023-02-01T06:42:52;7.03;;;5.40;;
10957;SDS011;5531;42.570;23.676;2023-02-01T06:45:21;6.60;;;5.45;;
10957;SDS011;5531;42.570;23.676;2023-02-01T06:47:50;6.03;;;4.75;;
10957;SDS011;5531;42.570;23.676;2023-02-01T06:50:19;5.90;;;4.90;;
10957;SDS011;5531;42.570;23.676;2023-02-01T06:52:48;5.90;;;5.22;;
10957;SDS011;5531;42.570;23.676;2023-02-01T06:55:20;7.85;;;5.68;;
10957;SDS011;5531;42.570;23.676;2023-02-01T06:57:52;7.85;;;5.65;;
10957;SDS011;5531;42.570;23.676;2023-02-01T07:00:22;9.63;;;6.82;;
10957;SDS011;5531;42.570;23.676;2023-02-01T07:02:51;6.15;;;5.55;;
10957;SDS011;5531;42.570;23.676;2023-02-01T07:05:21;9.63;;;5.93;;
10957;SDS011;5531;42.570;23.676;2023-02-01T07:07:52;7.53;;;5.93;;
10957;SDS011;5531;42.570;23.676;2023-02-01T07:10:21;8.10;;;5.72;;
10957;SDS011;5531;42.570;23.676;2023-02-01T07:12:50;5.88;;;5.28;;
10957;SDS011;5531;42.570;23.676;2023-02-01T07:15:19;7.43;;;5.70;;
10957;SDS011;5531;42.570;23.676;2023-02-01T07:17:48;9.10;;;6.10;;
10957;SDS011;5531;42.570;23.676;2023-02-01T07:20:17;6.57;;;5.15;;
10957;SDS011;5531;42.570;23.676;2023-02-01T07:22:46;6.85;;;5.88;;
10957;SDS011;5531;42.570;23.676;2023-02-01T07:25:18;7.75;;;5.80;;
10957;SDS011;5531;42.570;23.676;2023-02-01T07:27:47;13.27;;;6.68;;
10957;SDS011;5531;42.570;23.676;2023-02-01T07:30:17;9.18;;;7.20;;
10957;SDS011;5531;42.570;23.676;2023-02-01T07:32:46;8.90;;;6.78;;
10957;SDS011;5531;42.570;23.676;2023-02-01T07:35:15;8.40;;;6.18;;
10957;SDS011;5531;42.570;23.676;2023-02-01T07:37:44;7.25;;;6.38;;
10957;SDS011;5531;42.570;23.676;2023-02-01T07:40:13;6.22;;;5.53;;
10957;SDS011;5531;42.570;23.676;2023-02-01T07:42:46;5.38;;;4.38;;
10957;SDS011;5531;42.570;23.676;2023-02-01T07:45:17;7.43;;;5.22;;
10957;SDS011;5531;42.570;23.676;2023-02-01T07:47:46;6.30;;;4.55;;
10957;SDS011;5531;42.570;23.676;2023-02-01T07:50:15;7.97;;;4.57;;
10957;SDS011;5531;42.570;23.676;2023-02-01T07:52:44;6.30;;;4.55;;
10957;SDS011;5531;42.570;23.676;2023-02-01T07:55:14;6.70;;;4.75;;
10957;SDS011;5531;42.570;23.676;2023-02-01T07:57:45;5.00;;;4.22;;
10957;SDS011;5531;42.570;23.676;2023-02-01T08:00:15;6.45;;;4.65;;
10957;SDS011;5531;42.570;23.676;2023-02-01T08:02:57;9.07;;;4.90;;
10957;SDS011;5531;42.570;23.676;2023-02-01T08:05:26;4.43;;;3.97;;
10957;SDS011;5531;42.570;23.676;2023-02-01T08:07:56;3.63;;;2.97;;
10957;SDS011;5531;42.570;23.676;2023-02-01T08:10:25;5.30;;;3.70;;
10957;SDS011;5531;42.570;23.676;2023-02-01T08:13:00;5.47;;;3.95;;
10957;SDS011;5531;42.570;23.676;2023-02-01T08:15:29;6.50;;;5.03;;
10957;SDS011;5531;42.570;23.676;2023-02-01T08:17:59;6.97;;;3.85;;
10957;SDS011;5531;42.570;23.676;2023-02-01T08:20:28;6.28;;;3.90;;
10957;SDS011;5531;42.570;23.676;2023-02-01T08:22:57;7.05;;;3.92;;
10957;SDS011;5531;42.570;23.676;2023-02-01T08:25:26;3.88;;;3.45;;
10957;SDS011;5531;42.570;23.676;2023-02-01T08:27:55;4.72;;;3.60;;
10957;SDS011;5531;42.570;23.676;2023-02-01T08:30:27;4.38;;;3.00;;
10957;SDS011;5531;42.570;23.676;2023-02-01T08:32:56;5.90;;;3.80;;
10957;SDS011;5531;42.570;23.676;2023-02-01T08:35:26;6.00;;;3.55;;
10957;SDS011;5531;42.570;23.676;2023-02-01T08:37:55;6.03;;;3.22;;
10957;SDS011;5531;42.570;23.676;2023-02-01T08:40:24;4.50;;;3.40;;
10957;SDS011;5531;42.570;23.676;2023-02-01T08:42:53;4.03;;;3.40;;
10957;SDS011;5531;42.570;23.676;2023-02-01T08:45:23;5.88;;;3.10;;
10957;SDS011;5531;42.570;23.676;2023-02-01T08:47:57;3.58;;;3.00;;
10957;SDS011;5531;42.570;23.676;2023-02-01T08:50:26;5.20;;;3.03;;
10957;SDS011;5531;42.570;23.676;2023-02-01T08:52:55;4.40;;;3.65;;
10957;SDS011;5531;42.570;23.676;2023-02-01T08:55:24;4.75;;;3.50;;
10957;SDS011;5531;42.570;23.676;2023-02-01T08:57:54;5.40;;;3.58;;
10957;SDS011;5531;42.570;23.676;2023-02-01T09:00:23;5.53;;;3.50;;
10957;SDS011;5531;42.570;23.676;2023-02-01T09:02:55;4.35;;;3.08;;
10957;SDS011;5531;42.570;23.676;2023-02-01T09:05:24;5.55;;;3.63;;
10957;SDS011;5531;42.570;23.676;2023-02-01T09:07:53;5.28;;;3.50;;
10957;SDS011;5531;42.570;23.676;2023-02-01T09:10:22;4.72;;;3.53;;
10957;SDS011;5531;42.570;23.676;2023-02-01T09:12:51;5.80;;;3.90;;
10957;SDS011;5531;42.570;23.676;2023-02-01T09:15:20;4.60;;;3.40;;
10957;SDS011;5531;42.570;23.676;2023-02-01T09:17:52;6.43;;;3.88;;
10957;SDS011;5531;42.570;23.676;2023-02-01T09:20:21;4.97;;;3.95;;
10957;SDS011;5531;42.570;23.676;2023-02-01T09:22:50;4.05;;;2.97;;
10957;SDS011;5531;42.570;23.676;2023-02-01T09:25:19;5.78;;;3.13;;
10957;SDS011;5531;42.570;23.676;2023-02-01T09:27:49;4.47;;;3.70;;
10957;SDS011;5531;42.570;23.676;2023-02-01T09:30:18;7.00;;;3.47;;
10957;SDS011;5531;42.570;23.676;2023-02-01T09:32:47;6.82;;;3.83;;
10957;SDS011;5531;42.570;23.676;2023-02-01T09:35:19;6.05;;;4.22;;
10957;SDS011;5531;42.570;23.676;2023-02-01T09:37:48;5.57;;;3.92;;
10957;SDS011;5531;42.570;23.676;2023-02-01T09:40:17;5.82;;;4.10;;
10957;SDS011;5531;42.570;23.676;2023-02-01T09:42:50;5.80;;;3.95;;
10957;SDS011;5531;42.570;23.676;2023-02-01T09:45:32;8.35;;;4.70;;
10957;SDS011;5531;42.570;23.676;2023-02-01T09:48:13;5.65;;;4.50;;
10957;SDS011;5531;42.570;23.676;2023-02-01T09:50:49;6.25;;;4.80;;
10957;SDS011;5531;42.570;23.676;2023-02-01T09:53:23;7.30;;;4.88;;
10957;SDS011;5531;42.570;23.676;2023-02-01T09:56:00;5.32;;;4.47;;
10957;SDS011;5531;42.570;23.676;2023-02-01T09:58:34;7.28;;;4.50;;
10957;SDS011;5531;42.570;23.676;2023-02-01T10:01:18;6.45;;;4.25;;
10957;SDS011;5531;42.570;23.676;2023-02-01T10:03:49;5.57;;;4.25;;
10957;SDS011;5531;42.570;23.676;2023-02-01T10:09:22;5.72;;;3.78;;
10957;SDS011;5531;42.570;23.676;2023-02-01T10:15:15;4.30;;;3.80;;
10957;SDS011;5531;42.570;23.676;2023-02-01T10:17:56;4.30;;;3.85;;
10957;SDS011;5531;42.570;23.676;2023-02-01T10:20:46;6.15;;;3.80;;
10957;SDS011;5531;42.570;23.676;2023-02-01T10:23:40;6.70;;;3.78;;
10957;SDS011;5531;42.570;23.676;2023-02-01T10:26:30;5.70;;;4.20;;
10957;SDS011;5531;42.570;23.676;2023-02-01T10:29:03;5.93;;;3.90;;
10957;SDS011;5531;42.570;23.676;2023-02-01T10:31:38;5.07;;;3.92;;
10957;SDS011;5531;42.570;23.676;2023-02-01T10:34:10;4.40;;;3.47;;
10957;SDS011;5531;42.570;23.676;2023-02-01T10:36:50;4.80;;;3.83;;
10957;SDS011;5531;42.570;23.676;2023-02-01T10:39:25;5.45;;;3.58;;
10957;SDS011;5531;42.570;23.676;2023-02-01T10:41:54;4.68;;;3.35;;
10957;SDS011;5531;42.570;23.676;2023-02-01T10:44:25;4.43;;;3.10;;
10957;SDS011;5531;42.570;23.676;2023-02-01T10:46:57;4.72;;;3.15;;
10957;SDS011;5531;42.570;23.676;2023-02-01T10:49:28;7.55;;;3.40;;
10957;SDS011;5531;42.570;23.676;2023-02-01T10:52:05;5.03;;;2.97;;
10957;SDS011;5531;42.570;23.676;2023-02-01T10:54:43;6.35;;;3.30;;
10957;SDS011;5531;42.570;23.676;2023-02-01T10:57:19;4.60;;;3.50;;
10957;SDS011;5531;42.570;23.676;2023-02-01T10:59:51;3.75;;;2.92;;
10957;SDS011;5531;42.570;23.676;2023-02-01T11:02:23;3.78;;;2.60;;
10957;SDS011;5531;42.570;23.676;2023-02-01T11:04:58;6.05;;;2.53;;
10957;SDS011;5531;42.570;23.676;2023-02-01T11:07:29;3.42;;;2.40;;
10957;SDS011;5531;42.570;23.676;2023-02-01T11:10:03;3.20;;;2.53;;
10957;SDS011;5531;42.570;23.676;2023-02-01T11:12:34;3.53;;;2.40;;
10957;SDS011;5531;42.570;23.676;2023-02-01T11:15:13;4.53;;;2.58;;
10957;SDS011;5531;42.570;23.676;2023-02-01T11:17:46;3.20;;;2.47;;
10957;SDS011;5531;42.570;23.676;2023-02-01T11:20:17;4.80;;;2.85;;
10957;SDS011;5531;42.570;23.676;2023-02-01T11:22:52;4.28;;;2.95;;
10957;SDS011;5531;42.570;23.676;2023-02-01T11:25:25;4.22;;;2.70;;
10957;SDS011;5531;42.570;23.676;2023-02-01T11:27:54;4.75;;;3.08;;
10957;SDS011;5531;42.570;23.676;2023-02-01T11:30:29;4.70;;;3.10;;
10957;SDS011;5531;42.570;23.676;2023-02-01T11:33:01;4.85;;;3.10;;
10957;SDS011;5531;42.570;23.676;2023-02-01T11:35:33;4.90;;;2.70;;
10957;SDS011;5531;42.570;23.676;2023-02-01T11:38:11;3.05;;;2.50;;
10957;SDS011;5531;42.570;23.676;2023-02-01T11:40:49;4.72;;;2.55;;
10957;SDS011;5531;42.570;23.676;2023-02-01T11:43:19;2.60;;;2.33;;
10957;SDS011;5531;42.570;23.676;2023-02-01T11:45:56;4.53;;;2.40;;
10957;SDS011;5531;42.570;23.676;2023-02-01T11:48:28;2.92;;;2.30;;
10957;SDS011;5531;42.570;23.676;2023-02-01T11:51:05;3.55;;;2.17;;
10957;SDS011;5531;42.570;23.676;2023-02-01T11:53:55;4.10;;;2.40;;
10957;SDS011;5531;42.570;23.676;2023-02-01T11:56:36;4.68;;;2.20;;
10957;SDS011;5531;42.570;23.676;2023-02-01T11:59:12;3.97;;;2.10;;
10957;SDS011;5531;42.570;23.676;2023-02-01T12:02:08;2.78;;;2.22;;
10957;SDS011;5531;42.570;23.676;2023-02-01T12:04:59;3.00;;;2.30;;
10957;SDS011;5531;42.570;23.676;2023-02-01T12:07:50;3.47;;;2.45;;
10957;SDS011;5531;42.570;23.676;2023-02-01T12:10:33;5.03;;;2.50;;
10957;SDS011;5531;42.570;23.676;2023-02-01T12:13:18;2.90;;;2.22;;
10957;SDS011;5531;42.570;23.676;2023-02-01T12:16:00;4.97;;;2.20;;
10957;SDS011;5531;42.570;23.676;2023-02-01T12:18:41;3.42;;;2.40;;
10957;SDS011;5531;42.570;23.676;2023-02-01T12:27:34;3.50;;;2.22;;
10957;SDS011;5531;42.570;23.676;2023-02-01T12:30:29;3.45;;;2.30;;
10957;SDS011;5531;42.570;23.676;2023-02-01T12:33:08;2.30;;;1.90;;
10957;SDS011;5531;42.570;23.676;2023-02-01T12:35:53;3.15;;;1.90;;
10957;SDS011;5531;42.570;23.676;2023-02-01T12:38:39;2.85;;;1.88;;
10957;SDS011;5531;42.570;23.676;2023-02-01T12:41:18;2.40;;;1.85;;
10957;SDS011;5531;42.570;23.676;2023-02-01T12:43:58;2.88;;;2.00;;
10957;SDS011;5531;42.570;23.676;2023-02-01T12:46:35;3.67;;;2.78;;
10957;SDS011;5531;42.570;23.676;2023-02-01T12:49:10;2.83;;;2.10;;
10957;SDS011;5531;42.570;23.676;2023-02-01T12:51:44;3.08;;;2.10;;
10957;SDS011;5531;42.570;23.676;2023-02-01T12:54:18;3.08;;;2.40;;
10957;SDS011;5531;42.570;23.676;2023-02-01T12:56:51;3.17;;;2.38;;
10957;SDS011;5531;42.570;23.676;2023-02-01T12:59:26;2.20;;;2.00;;
10957;SDS011;5531;42.570;23.676;2023-02-01T13:02:04;2.58;;;1.83;;
10957;SDS011;5531;42.570;23.676;2023-02-01T13:04:44;2.25;;;2.00;;
10957;SDS011;5531;42.570;23.676;2023-02-01T13:07:28;3.17;;;1.92;;
10957;SDS011;5531;42.570;23.676;2023-02-01T13:10:07;3.00;;;2.00;;
10957;SDS011;5531;42.570;23.676;2023-02-01T13:12:44;2.20;;;1.90;;
10957;SDS011;5531;42.570;23.676;2023-02-01T13:15:20;2.75;;;1.80;;
10957;SDS011;5531;42.570;23.676;2023-02-01T13:18:00;2.75;;;1.92;;
10957;SDS011;5531;42.570;23.676;2023-02-01T13:20:34;2.13;;;1.92;;
10957;SDS011;5531;42.570;23.676;2023-02-01T13:23:08;2.60;;;2.00;;
10957;SDS011;5531;42.570;23.676;2023-02-01T13:25:52;2.45;;;1.65;;
10957;SDS011;5531;42.570;23.676;2023-02-01T13:28:24;2.13;;;1.90;;
10957;SDS011;5531;42.570;23.676;2023-02-01T13:31:02;2.25;;;1.65;;
10957;SDS011;5531;42.570;23.676;2023-02-01T13:33:56;2.10;;;1.80;;
10957;SDS011;5531;42.570;23.676;2023-02-01T13:36:58;1.88;;;1.58;;
10957;SDS011;5531;42.570;23.676;2023-02-01T13:39:43;4.15;;;1.80;;
10957;SDS011;5531;42.570;23.676;2023-02-01T13:42:19;4.38;;;1.77;;
10957;SDS011;5531;42.570;23.676;2023-02-01T13:44:51;1.70;;;1.60;;
10957;SDS011;5531;42.570;23.676;2023-02-01T13:47:26;3.00;;;2.00;;
10957;SDS011;5531;42.570;23.676;2023-02-01T13:50:01;2.78;;;1.80;;
10957;SDS011;5531;42.570;23.676;2023-02-01T13:52:42;2.03;;;1.75;;
10957;SDS011;5531;42.570;23.676;2023-02-01T13:55:23;2.88;;;1.88;;
10957;SDS011;5531;42.570;23.676;2023-02-01T13:58:00;2.25;;;1.80;;
10957;SDS011;5531;42.570;23.676;2023-02-01T14:00:32;2.30;;;1.80;;
10957;SDS011;5531;42.570;23.676;2023-02-01T14:03:15;2.00;;;1.70;;
10957;SDS011;5531;42.570;23.676;2023-02-01T14:06:14;3.47;;;1.75;;
10957;SDS011;5531;42.570;23.676;2023-02-01T14:08:46;2.85;;;1.67;;
10957;SDS011;5531;42.570;23.676;2023-02-01T14:11:46;4.13;;;2.08;;
10957;SDS011;5531;42.570;23.676;2023-02-01T14:26:09;3.00;;;1.75;;
10957;SDS011;5531;42.570;23.676;2023-02-01T14:28:41;2.47;;;2.03;;
10957;SDS011;5531;42.570;23.676;2023-02-01T14:31:14;3.00;;;1.83;;
10957;SDS011;5531;42.570;23.676;2023-02-01T14:33:54;2.72;;;2.00;;
10957;SDS011;5531;42.570;23.676;2023-02-01T14:36:25;2.25;;;1.80;;
10957;SDS011;5531;42.570;23.676;2023-02-01T14:39:22;3.47;;;2.15;;
10957;SDS011;5531;42.570;23.676;2023-02-01T14:41:55;3.80;;;2.20;;
10957;SDS011;5531;42.570;23.676;2023-02-01T14:44:28;2.65;;;2.00;;
10957;SDS011;5531;42.570;23.676;2023-02-01T14:50:07;2.15;;;1.88;;
10957;SDS011;5531;42.570;23.676;2023-02-01T14:52:46;2.90;;;1.88;;
10957;SDS011;5531;42.570;23.676;2023-02-01T14:55:21;2.83;;;1.83;;
10957;SDS011;5531;42.570;23.676;2023-02-01T14:57:56;2.53;;;1.95;;
10957;SDS011;5531;42.570;23.676;2023-02-01T15:00:29;2.60;;;1.90;;
10957;SDS011;5531;42.570;23.676;2023-02-01T15:03:15;2.00;;;1.80;;
10957;SDS011;5531;42.570;23.676;2023-02-01T15:05:55;3.17;;;2.05;;
10957;SDS011;5531;42.570;23.676;2023-02-01T15:08:26;3.40;;;2.03;;
10957;SDS011;5531;42.570;23.676;2023-02-01T15:11:02;4.80;;;2.50;;
10957;SDS011;5531;42.570;23.676;2023-02-01T15:13:36;2.65;;;2.20;;
10957;SDS011;5531;42.570;23.676;2023-02-01T15:16:08;4.28;;;2.22;;
10957;SDS011;5531;42.570;23.676;2023-02-01T15:18:39;2.45;;;2.10;;
10957;SDS011;5531;42.570;23.676;2023-02-01T15:21:15;2.53;;;2.30;;
10957;SDS011;5531;42.570;23.676;2023-02-01T15:23:46;2.20;;;1.80;;
10957;SDS011;5531;42.570;23.676;2023-02-01T15:26:28;1.83;;;1.70;;
10957;SDS011;5531;42.570;23.676;2023-02-01T15:28:59;2.47;;;1.75;;
10957;SDS011;5531;42.570;23.676;2023-02-01T15:31:32;4.18;;;2.30;;
10957;SDS011;5531;42.570;23.676;2023-02-01T15:34:03;1.77;;;1.60;;
10957;SDS011;5531;42.570;23.676;2023-02-01T15:36:32;2.13;;;1.73;;
10957;SDS011;5531;42.570;23.676;2023-02-01T15:39:12;2.92;;;1.90;;
10957;SDS011;5531;42.570;23.676;2023-02-01T15:41:54;3.90;;;2.00;;
10957;SDS011;5531;42.570;23.676;2023-02-01T15:44:33;5.13;;;2.40;;
10957;SDS011;5531;42.570;23.676;2023-02-01T15:47:08;3.17;;;2.15;;
10957;SDS011;5531;42.570;23.676;2023-02-01T15:49:44;4.05;;;2.28;;
10957;SDS011;5531;42.570;23.676;2023-02-01T15:52:21;3.35;;;1.98;;
10957;SDS011;5531;42.570;23.676;2023-02-01T15:54:54;2.70;;;1.98;;
10957;SDS011;5531;42.570;23.676;2023-02-01T15:57:28;2.78;;;2.20;;